createdAt,value
2023-05-24T00:00:46.762Z,5.28
2023-05-24T00:03:26.376Z,5.63
2023-05-24T00:05:53.597Z,5.03
2023-05-24T00:08:20.927Z,5.15
2023-05-24T00:10:48.642Z,5.35
2023-05-24T00:13:15.887Z,4.90
2023-05-24T00:15:43.187Z,4.93
2023-05-24T00:18:10.594Z,4.90
2023-05-24T00:20:37.771Z,4.80
2023-05-24T00:23:05.236Z,4.65
2023-05-24T00:25:32.420Z,6.25
2023-05-24T00:27:59.693Z,5.10
2023-05-24T00:30:27.049Z,6.20
2023-05-24T00:32:56.053Z,4.47
2023-05-24T00:35:23.638Z,5.22
2023-05-24T00:37:50.799Z,4.82
2023-05-24T00:40:18.077Z,5.78
2023-05-24T00:42:45.464Z,4.32
2023-05-24T00:45:12.738Z,5.38
2023-05-24T00:47:42.189Z,4.18
2023-05-24T00:50:17.017Z,6.05
2023-05-24T00:52:45.203Z,4.63
2023-05-24T00:55:12.655Z,5.35
2023-05-24T00:57:41.021Z,4.97
2023-05-24T01:00:11.408Z,4.47
2023-05-24T01:02:39.024Z,5.50
2023-05-24T01:05:07.054Z,5.60
2023-05-24T01:07:59.444Z,5.03
2023-05-24T01:10:52.257Z,4.97
2023-05-24T01:14:07.571Z,4.28
2023-05-24T01:16:51.648Z,4.55
2023-05-24T01:19:49.711Z,5.75
2023-05-24T01:22:54.011Z,5.22
2023-05-24T01:25:45.328Z,5.80
2023-05-24T01:28:13.319Z,4.80
2023-05-24T01:30:42.651Z,4.68
2023-05-24T01:33:10.758Z,4.85
2023-05-24T01:35:42.196Z,4.47
2023-05-24T01:38:14.367Z,4.90
2023-05-24T01:40:43.050Z,4.75
2023-05-24T01:43:40.067Z,4.28
2023-05-24T01:46:29.611Z,4.47
2023-05-24T01:49:27.189Z,4.95
2023-05-24T01:52:12.880Z,5.20
2023-05-24T01:54:50.343Z,4.38
2023-05-24T01:57:21.342Z,5.95
2023-05-24T01:59:50.407Z,4.88
2023-05-24T02:02:18.656Z,4.70
2023-05-24T02:04:46.977Z,4.30
2023-05-24T02:07:14.245Z,5.40
2023-05-24T02:09:41.240Z,5.15
2023-05-24T02:12:09.512Z,5.07
2023-05-24T02:14:37.897Z,5.75
2023-05-24T02:17:06.030Z,5.13
2023-05-24T02:19:34.640Z,4.35
2023-05-24T02:22:01.845Z,4.85
2023-05-24T02:24:30.651Z,4.72
2023-05-24T02:26:57.806Z,4.20
2023-05-24T02:29:25.472Z,4.65
2023-05-24T02:31:56.427Z,4.85
2023-05-24T02:34:24.933Z,4.88
2023-05-24T02:37:30.214Z,5.07
2023-05-24T02:46:06.812Z,5.85
2023-05-24T02:48:33.887Z,7.15
2023-05-24T02:51:03.663Z,6.22
2023-05-24T02:53:31.736Z,6.63
2023-05-24T02:56:00.522Z,6.60
2023-05-24T02:58:31.060Z,5.82
2023-05-24T03:00:58.524Z,5.82
2023-05-24T03:03:25.791Z,5.40
2023-05-24T03:05:53.167Z,6.38
2023-05-24T03:08:20.232Z,6.38
2023-05-24T03:10:48.342Z,6.63
2023-05-24T03:13:15.596Z,6.75
2023-05-24T03:15:42.932Z,6.35
2023-05-24T03:18:10.324Z,5.75
2023-05-24T03:20:40.830Z,7.00
2023-05-24T03:23:09.716Z,7.10
2023-05-24T03:25:37.473Z,7.22
2023-05-24T03:28:04.833Z,6.32
2023-05-24T03:30:33.789Z,6.93
2023-05-24T03:33:01.327Z,7.43
2023-05-24T03:35:28.990Z,8.50
2023-05-24T03:37:56.852Z,7.65
2023-05-24T03:40:25.790Z,10.18
2023-05-24T03:42:56.323Z,10.63
2023-05-24T03:45:40.058Z,10.10
2023-05-24T03:48:07.547Z,9.23
2023-05-24T03:50:35.705Z,10.50
2023-05-24T03:53:02.941Z,12.38
2023-05-24T03:55:30.503Z,10.30
2023-05-24T03:57:57.829Z,12.45
2023-05-24T04:00:25.176Z,10.90
2023-05-24T04:02:53.132Z,11.88
2023-05-24T04:05:21.710Z,13.88
2023-05-24T04:08:40.544Z,14.70
2023-05-24T04:11:09.877Z,14.85
2023-05-24T04:23:35.573Z,18.63
2023-05-24T04:27:48.716Z,15.90
2023-05-24T04:30:18.341Z,15.48
2023-05-24T04:32:45.413Z,17.48
2023-05-24T04:35:14.203Z,18.08
2023-05-24T04:42:03.634Z,16.13
2023-05-24T04:44:30.848Z,19.38
2023-05-24T04:46:58.762Z,19.52
2023-05-24T04:49:31.854Z,21.88
2023-05-24T04:53:51.957Z,20.00
2023-05-24T04:56:21.036Z,20.45
2023-05-24T04:58:48.161Z,22.02
2023-05-24T05:01:15.875Z,24.38
2023-05-24T05:03:45.056Z,22.88
2023-05-24T05:07:55.620Z,24.33
2023-05-24T05:11:21.416Z,21.65
2023-05-24T05:24:31.784Z,22.48
2023-05-24T05:26:59.461Z,19.20
2023-05-24T05:29:26.393Z,21.23
2023-05-24T05:31:53.974Z,17.65
2023-05-24T05:34:21.313Z,20.48
2023-05-24T05:36:48.874Z,21.60
2023-05-24T05:39:15.841Z,18.83
2023-05-24T05:41:46.013Z,17.15
2023-05-24T05:44:14.043Z,17.38
2023-05-24T05:46:43.833Z,17.20
2023-05-24T05:49:11.347Z,17.60
2023-05-24T05:51:39.109Z,15.52
2023-05-24T05:54:06.474Z,15.05
2023-05-24T05:56:33.893Z,15.73
2023-05-24T05:59:01.061Z,16.80
2023-05-24T06:01:29.419Z,14.40
2023-05-24T06:03:56.634Z,17.40
2023-05-24T06:06:23.869Z,14.65
2023-05-24T06:08:50.855Z,17.20
2023-05-24T06:11:18.154Z,15.07
2023-05-24T06:13:45.245Z,14.80
2023-05-24T06:16:12.588Z,15.65
2023-05-24T06:18:47.390Z,16.05
2023-05-24T06:21:21.676Z,18.55
2023-05-24T06:23:49.185Z,17.33
2023-05-24T06:26:16.474Z,18.83
2023-05-24T06:28:43.356Z,16.90
2023-05-24T06:31:10.783Z,17.88
2023-05-24T06:33:38.253Z,21.85
2023-05-24T06:36:05.948Z,16.67
2023-05-24T06:38:33.046Z,19.27
2023-05-24T06:41:00.253Z,17.73
2023-05-24T06:43:28.208Z,16.35
2023-05-24T06:45:56.467Z,16.55
2023-05-24T06:48:23.497Z,18.48
2023-05-24T06:50:51.525Z,17.35
2023-05-24T06:53:18.650Z,17.77
2023-05-24T06:55:46.046Z,19.42
2023-05-24T06:58:16.126Z,20.73
2023-05-24T07:01:09.105Z,20.13
2023-05-24T07:03:37.215Z,20.58
2023-05-24T07:06:57.706Z,17.10
2023-05-24T07:09:24.774Z,15.20
2023-05-24T07:11:53.640Z,17.52
2023-05-24T07:14:23.046Z,15.20
2023-05-24T07:16:50.363Z,14.90
2023-05-24T07:19:17.473Z,14.93
2023-05-24T07:21:45.321Z,16.60
2023-05-24T07:24:14.089Z,15.90
2023-05-24T07:26:43.453Z,16.77
2023-05-24T07:29:13.188Z,18.90
2023-05-24T07:31:42.979Z,18.63
2023-05-24T07:34:10.051Z,17.40
2023-05-24T07:36:37.261Z,20.15
2023-05-24T07:39:06.215Z,18.42
2023-05-24T07:41:34.054Z,18.58
2023-05-24T07:44:00.973Z,20.75
2023-05-24T07:46:33.460Z,22.77
2023-05-24T07:49:32.914Z,17.90
2023-05-24T07:52:00.307Z,21.33
2023-05-24T07:54:29.137Z,16.23
2023-05-24T07:56:57.388Z,18.48
2023-05-24T07:59:24.439Z,20.58
2023-05-24T08:01:52.403Z,19.75
2023-05-24T08:04:19.585Z,20.88
2023-05-24T08:06:47.028Z,17.17
2023-05-24T08:09:14.117Z,16.30
2023-05-24T08:11:41.831Z,16.02
2023-05-24T08:14:08.866Z,17.67
2023-05-24T08:16:36.463Z,15.48
2023-05-24T08:19:03.981Z,15.57
2023-05-24T08:21:31.951Z,13.63
2023-05-24T08:24:00.037Z,14.45
2023-05-24T08:26:28.448Z,13.77
2023-05-24T08:28:55.770Z,12.30
2023-05-24T08:31:23.302Z,12.02
2023-05-24T08:33:51.294Z,11.25
2023-05-24T08:36:18.811Z,10.13
2023-05-24T08:38:45.937Z,10.07
2023-05-24T08:41:13.359Z,11.38
2023-05-24T08:43:43.174Z,11.60
2023-05-24T08:46:12.539Z,11.40
2023-05-24T08:48:47.133Z,12.43
2023-05-24T08:51:16.616Z,11.85
2023-05-24T08:53:49.170Z,10.75
2023-05-24T08:56:19.049Z,12.38
2023-05-24T08:58:47.140Z,12.80
2023-05-24T09:01:17.018Z,8.88
2023-05-24T09:03:47.083Z,9.02
2023-05-24T09:06:18.802Z,10.05
2023-05-24T09:08:46.523Z,8.65
2023-05-24T09:11:16.334Z,8.75
2023-05-24T09:13:46.027Z,9.30
2023-05-24T09:16:15.144Z,9.55
2023-05-24T09:18:42.836Z,8.82
2023-05-24T09:21:12.062Z,8.13
2023-05-24T09:23:41.128Z,7.90
2023-05-24T09:26:10.088Z,9.48
2023-05-24T09:28:38.596Z,10.68
2023-05-24T09:31:08.040Z,9.27
2023-05-24T09:33:36.115Z,13.68
2023-05-24T09:36:06.607Z,10.77
2023-05-24T09:38:33.620Z,14.05
2023-05-24T09:41:06.850Z,11.75
2023-05-24T09:43:47.347Z,13.88
2023-05-24T09:46:21.685Z,13.48
2023-05-24T09:49:06.875Z,12.35
2023-05-24T09:51:38.365Z,12.52
2023-05-24T09:54:06.470Z,10.93
2023-05-24T09:56:34.993Z,9.13
2023-05-24T09:59:08.532Z,9.18
2023-05-24T10:01:36.313Z,9.60
2023-05-24T10:04:09.403Z,9.18
2023-05-24T10:06:38.833Z,9.02
2023-05-24T10:09:07.693Z,9.10
2023-05-24T10:11:39.910Z,10.55
2023-05-24T10:14:09.441Z,9.68
2023-05-24T10:16:40.313Z,10.13
2023-05-24T10:19:07.461Z,9.35
2023-05-24T10:21:40.944Z,9.88
2023-05-24T10:24:11.254Z,10.07
2023-05-24T10:26:42.435Z,10.40
2023-05-24T10:29:24.470Z,10.98
2023-05-24T10:31:53.936Z,9.02
2023-05-24T10:34:21.876Z,10.50
2023-05-24T10:36:50.384Z,9.90
2023-05-24T10:39:22.609Z,11.35
2023-05-24T10:41:49.963Z,10.25
2023-05-24T10:44:21.093Z,9.38
2023-05-24T10:47:10.013Z,11.35
2023-05-24T10:49:39.765Z,10.27
2023-05-24T10:52:10.614Z,11.45
2023-05-24T10:54:39.898Z,10.50
2023-05-24T10:57:10.165Z,13.40
2023-05-24T10:59:39.287Z,12.25
2023-05-24T11:02:13.538Z,11.95
2023-05-24T11:04:46.183Z,12.35
2023-05-24T11:07:19.311Z,13.50
2023-05-24T11:09:52.968Z,10.68
2023-05-24T11:12:20.822Z,11.77
2023-05-24T11:14:51.287Z,11.55
2023-05-24T11:17:24.011Z,13.13
2023-05-24T11:19:54.094Z,11.13
2023-05-24T11:22:25.876Z,12.32
2023-05-24T11:24:53.734Z,13.10
2023-05-24T11:27:21.894Z,11.13
2023-05-24T11:29:49.361Z,12.45
2023-05-24T11:32:20.768Z,11.13
2023-05-24T11:34:48.901Z,11.55
2023-05-24T11:37:18.291Z,15.07
2023-05-24T11:39:54.202Z,12.13
2023-05-24T11:42:23.693Z,12.90
2023-05-24T11:44:53.428Z,10.35
2023-05-24T11:47:22.463Z,11.90
2023-05-24T11:49:53.003Z,12.88
2023-05-24T11:52:20.768Z,13.45
2023-05-24T11:54:49.684Z,14.05
2023-05-24T11:57:27.022Z,14.10
2023-05-24T11:59:54.035Z,11.48
2023-05-24T12:02:23.559Z,12.95
2023-05-24T12:04:50.889Z,10.18
2023-05-24T12:07:18.128Z,10.98
2023-05-24T12:09:45.392Z,10.93
2023-05-24T12:12:12.937Z,10.77
2023-05-24T12:15:33.482Z,11.38
2023-05-24T12:18:26.978Z,10.35
2023-05-24T12:20:54.801Z,11.05
2023-05-24T12:23:29.684Z,11.77
2023-05-24T12:26:02.420Z,11.05
2023-05-24T12:28:39.815Z,9.80
2023-05-24T12:31:17.823Z,10.60
2023-05-24T12:33:48.085Z,11.07
2023-05-24T12:36:15.029Z,10.55
2023-05-24T12:38:42.336Z,10.00
2023-05-24T12:41:13.371Z,10.73
2023-05-24T12:43:44.338Z,10.30
2023-05-24T12:46:11.800Z,11.10
2023-05-24T12:48:39.390Z,11.02
2023-05-24T12:51:08.146Z,10.20
2023-05-24T12:53:36.618Z,9.32
2023-05-24T12:56:03.872Z,10.77
2023-05-24T12:58:31.484Z,9.00
2023-05-24T13:00:58.742Z,10.30
2023-05-24T13:03:25.940Z,9.15
2023-05-24T13:05:53.170Z,12.25
2023-05-24T13:08:20.861Z,19.15
2023-05-24T13:10:49.392Z,8.25
2023-05-24T13:13:16.890Z,10.50
2023-05-24T13:15:44.662Z,9.35
2023-05-24T13:18:13.165Z,9.60
2023-05-24T13:20:40.691Z,10.82
2023-05-24T13:23:08.287Z,10.57
2023-05-24T13:26:01.651Z,8.65
2023-05-24T13:28:31.377Z,10.32
2023-05-24T13:30:58.668Z,9.35
2023-05-24T13:33:26.454Z,9.10
2023-05-24T13:35:54.654Z,10.18
2023-05-24T13:38:22.310Z,10.68
2023-05-24T13:40:50.149Z,10.73
2023-05-24T13:43:17.679Z,9.57
2023-05-24T13:45:45.612Z,10.25
2023-05-24T13:48:13.164Z,10.77
2023-05-24T13:50:40.635Z,9.57
2023-05-24T13:53:08.036Z,8.65
2023-05-24T13:55:37.686Z,10.35
2023-05-24T13:58:05.961Z,9.85
2023-05-24T14:00:34.197Z,9.23
2023-05-24T14:03:03.483Z,8.38
2023-05-24T14:05:31.281Z,10.32
2023-05-24T14:08:06.063Z,10.65
2023-05-24T14:10:36.851Z,9.05
2023-05-24T14:15:37.925Z,10.32
2023-05-24T14:18:08.446Z,10.10
2023-05-24T14:20:37.765Z,11.13
2023-05-24T14:23:07.521Z,9.60
2023-05-24T14:25:34.826Z,8.43
2023-05-24T14:28:03.840Z,10.00
2023-05-24T14:30:35.961Z,8.15
2023-05-24T14:33:03.769Z,11.55
2023-05-24T14:35:33.264Z,9.82
2023-05-24T14:38:00.707Z,10.73
2023-05-24T14:40:29.248Z,10.18
2023-05-24T14:42:56.806Z,10.00
2023-05-24T14:45:24.416Z,8.60
2023-05-24T14:47:52.139Z,9.75
2023-05-24T14:50:19.439Z,9.73
2023-05-24T14:52:46.881Z,9.80
2023-05-24T14:55:14.943Z,11.45
2023-05-24T14:57:42.504Z,10.73
2023-05-24T15:00:11.467Z,11.88
2023-05-24T15:02:39.025Z,12.93
2023-05-24T15:05:07.055Z,11.25
2023-05-24T15:07:34.405Z,9.95
2023-05-24T15:10:02.512Z,9.02
2023-05-24T15:12:30.780Z,9.98
2023-05-24T15:14:57.890Z,9.55
2023-05-24T15:17:25.414Z,9.50
2023-05-24T15:19:53.730Z,9.02
2023-05-24T15:22:21.343Z,8.57
2023-05-24T15:24:48.526Z,9.18
2023-05-24T15:27:16.402Z,8.30
2023-05-24T15:29:45.324Z,7.40
2023-05-24T15:32:13.153Z,8.35
2023-05-24T15:34:40.412Z,8.60
2023-05-24T15:37:07.862Z,8.52
2023-05-24T15:39:36.131Z,8.07
2023-05-24T15:42:05.982Z,8.85
2023-05-24T15:44:33.067Z,8.07
2023-05-24T15:47:00.874Z,9.25
2023-05-24T15:49:31.604Z,7.20
2023-05-24T15:52:04.258Z,8.98
2023-05-24T15:54:33.761Z,6.10
2023-05-24T15:57:01.862Z,7.45
2023-05-24T15:59:31.516Z,8.23
2023-05-24T16:01:59.223Z,7.47
2023-05-24T16:04:26.298Z,6.43
2023-05-24T16:06:53.457Z,9.27
2023-05-24T16:09:20.721Z,7.47
2023-05-24T16:11:48.912Z,8.40
2023-05-24T16:14:16.849Z,7.05
2023-05-24T16:16:44.700Z,6.97
2023-05-24T16:19:12.084Z,7.40
2023-05-24T16:21:39.567Z,8.13
2023-05-24T16:24:06.857Z,7.60
2023-05-24T16:26:35.294Z,7.68
2023-05-24T16:29:03.912Z,8.75
2023-05-24T16:31:32.027Z,8.05
2023-05-24T16:34:00.967Z,7.45
2023-05-24T16:36:28.664Z,7.72
2023-05-24T16:38:55.863Z,7.57
2023-05-24T16:41:23.402Z,8.80
2023-05-24T16:43:50.746Z,7.22
2023-05-24T16:46:18.959Z,7.57
2023-05-24T16:48:46.306Z,9.68
2023-05-24T16:51:13.979Z,8.75
2023-05-24T16:53:41.190Z,7.53
2023-05-24T16:56:08.782Z,8.32
2023-05-24T16:58:37.252Z,8.75
2023-05-24T17:01:04.643Z,8.30
2023-05-24T17:03:34.070Z,7.25
2023-05-24T17:07:14.869Z,7.85
2023-05-24T17:09:43.881Z,7.05
2023-05-24T17:12:20.088Z,8.75
2023-05-24T17:14:52.280Z,7.93
2023-05-24T17:17:22.093Z,8.68
2023-05-24T17:19:49.731Z,8.70
2023-05-24T17:22:17.481Z,8.60
2023-05-24T17:24:46.429Z,8.65
2023-05-24T17:27:13.668Z,8.30
2023-05-24T17:29:44.577Z,10.07
2023-05-24T17:32:35.934Z,8.80
2023-05-24T17:35:11.956Z,11.00
2023-05-24T17:37:43.099Z,8.98
2023-05-24T17:40:27.560Z,8.27
2023-05-24T17:43:06.303Z,9.43
2023-05-24T17:45:34.481Z,11.45
2023-05-24T17:48:02.398Z,9.90
2023-05-24T17:50:31.410Z,7.15
2023-05-24T17:52:59.689Z,10.32
2023-05-24T17:55:27.252Z,9.23
2023-05-24T17:57:54.857Z,9.75
2023-05-24T18:00:23.344Z,8.52
2023-05-24T18:02:50.694Z,10.32
2023-05-24T18:05:19.542Z,8.75
2023-05-24T18:07:46.592Z,9.32
2023-05-24T18:10:13.862Z,9.07
2023-05-24T18:12:41.557Z,8.43
2023-05-24T18:15:09.872Z,9.00
2023-05-24T18:17:39.684Z,9.55
2023-05-24T18:20:08.841Z,8.55
2023-05-24T18:22:35.841Z,8.38
2023-05-24T18:25:03.390Z,8.18
2023-05-24T18:27:31.218Z,8.00
2023-05-24T18:29:59.530Z,7.47
2023-05-24T18:32:27.145Z,7.95
2023-05-24T18:34:56.824Z,7.60
2023-05-24T18:37:23.954Z,7.35
2023-05-24T18:39:51.570Z,8.93
2023-05-24T18:42:19.182Z,6.28
2023-05-24T18:44:46.756Z,9.40
2023-05-24T18:47:14.007Z,11.32
2023-05-24T18:49:42.427Z,10.07
2023-05-24T18:52:25.019Z,7.97
2023-05-24T18:55:20.096Z,7.65
2023-05-24T18:57:51.689Z,9.23
2023-05-24T19:00:22.881Z,6.97
2023-05-24T19:02:51.424Z,10.10
2023-05-24T19:05:20.582Z,8.02
2023-05-24T19:07:47.764Z,7.35
2023-05-24T19:10:15.418Z,7.57
2023-05-24T19:12:42.512Z,8.70
2023-05-24T19:15:13.156Z,6.95
2023-05-24T19:17:41.888Z,8.32
2023-05-24T19:20:26.208Z,8.10
2023-05-24T19:22:53.409Z,6.85
2023-05-24T19:25:21.286Z,8.38
2023-05-24T19:27:59.034Z,7.65
2023-05-24T19:30:27.991Z,9.45
2023-05-24T19:32:55.325Z,6.75
2023-05-24T19:35:23.716Z,8.10
2023-05-24T19:37:52.140Z,8.70
2023-05-24T19:40:20.650Z,9.20
2023-05-24T19:42:47.910Z,8.15
2023-05-24T19:45:16.292Z,7.05
2023-05-24T19:47:47.498Z,8.98
2023-05-24T19:50:17.805Z,6.68
2023-05-24T19:52:45.078Z,8.30
2023-05-24T19:55:12.923Z,8.93
2023-05-24T19:58:18.065Z,10.00
2023-05-24T20:01:14.168Z,8.90
2023-05-24T20:07:22.880Z,9.85
2023-05-24T20:09:50.228Z,10.63
2023-05-24T20:12:17.933Z,11.48
2023-05-24T20:19:30.896Z,8.35
2023-05-24T20:21:58.300Z,8.07
2023-05-24T20:24:26.340Z,9.30
2023-05-24T20:26:53.593Z,9.88
2023-05-24T20:29:21.306Z,10.80
2023-05-24T20:31:49.068Z,10.13
2023-05-24T20:34:16.514Z,9.82
2023-05-24T20:36:44.127Z,11.98
2023-05-24T20:40:09.571Z,11.75
2023-05-24T20:49:15.297Z,12.38
2023-05-24T20:51:54.947Z,9.37
2023-05-24T20:54:22.013Z,10.48
2023-05-24T20:57:19.814Z,11.55
2023-05-24T20:59:46.910Z,11.23
2023-05-24T21:02:14.480Z,13.35
2023-05-24T21:04:43.724Z,12.90
2023-05-24T21:07:12.559Z,9.77
2023-05-24T21:11:22.252Z,10.55
2023-05-24T21:14:41.193Z,10.90
2023-05-24T21:17:08.471Z,11.65
2023-05-24T21:19:35.926Z,12.23
2023-05-24T21:22:02.989Z,10.20
2023-05-24T21:24:30.221Z,9.80
2023-05-24T21:26:57.280Z,12.77
2023-05-24T21:29:24.500Z,10.50
2023-05-24T21:31:51.611Z,9.50
2023-05-24T21:34:19.123Z,11.40
2023-05-24T21:36:46.127Z,9.85
2023-05-24T21:39:14.188Z,11.63
2023-05-24T21:41:41.695Z,12.60
2023-05-24T21:44:09.293Z,12.45
2023-05-24T21:46:36.998Z,12.10
2023-05-24T21:49:04.809Z,12.77
2023-05-24T21:51:32.115Z,10.85
2023-05-24T21:53:59.859Z,12.30
2023-05-24T21:56:27.260Z,10.88
2023-05-24T21:58:54.652Z,11.18
2023-05-24T22:01:22.127Z,10.38
2023-05-24T22:03:50.039Z,10.25
2023-05-24T22:06:17.222Z,10.73
2023-05-24T22:08:44.776Z,9.82
2023-05-24T22:11:11.850Z,9.07
2023-05-24T22:13:39.137Z,9.68
2023-05-24T22:16:07.078Z,10.50
2023-05-24T22:18:34.443Z,9.10
2023-05-24T22:21:02.431Z,9.65
2023-05-24T22:23:29.743Z,10.48
2023-05-24T22:25:56.866Z,11.48
2023-05-24T22:28:24.996Z,11.45
2023-05-24T22:30:52.429Z,12.75
2023-05-24T22:33:19.990Z,11.07
2023-05-24T22:35:47.089Z,10.15
2023-05-24T22:38:14.304Z,10.18
2023-05-24T22:40:42.287Z,10.23
2023-05-24T22:43:09.716Z,9.35
2023-05-24T22:45:36.736Z,10.85
2023-05-24T22:48:03.991Z,11.52
2023-05-24T22:50:31.465Z,9.82
2023-05-24T22:52:59.587Z,7.70
2023-05-24T22:55:27.051Z,9.23
2023-05-24T22:57:54.307Z,8.48
2023-05-24T23:00:21.775Z,7.97
2023-05-24T23:02:49.888Z,9.20
2023-05-24T23:05:17.395Z,8.25
2023-05-24T23:07:46.005Z,8.98
2023-05-24T23:10:13.359Z,8.90
2023-05-24T23:12:42.353Z,8.75
2023-05-24T23:15:11.649Z,8.52
2023-05-24T23:17:39.065Z,8.27
2023-05-24T23:20:10.065Z,8.40
2023-05-24T23:22:37.764Z,10.18
2023-05-24T23:25:05.551Z,9.27
2023-05-24T23:27:33.634Z,8.00
2023-05-24T23:30:02.297Z,8.35
2023-05-24T23:32:29.770Z,9.50
2023-05-24T23:34:56.972Z,8.13
2023-05-24T23:37:24.385Z,10.73
2023-05-24T23:39:51.385Z,8.95
2023-05-24T23:42:18.759Z,8.45
2023-05-24T23:44:46.250Z,7.90
2023-05-24T23:47:14.197Z,8.73
2023-05-24T23:49:41.438Z,8.23
2023-05-24T23:52:09.025Z,7.53
2023-05-24T23:54:37.084Z,7.72
2023-05-24T23:57:07.541Z,9.32
2023-05-24T23:59:34.949Z,9.02
